createdAt,value
2019-04-22T00:00:36.794Z,1013.30
2019-04-22T00:01:36.410Z,1013.29
2019-04-22T00:02:43.577Z,1013.31
2019-04-22T00:03:45.507Z,1013.29
2019-04-22T00:04:52.555Z,1013.29
2019-04-22T00:06:00.382Z,1013.27
2019-04-22T00:07:07.059Z,1013.28
2019-04-22T00:08:10.620Z,1013.23
2019-04-22T00:09:11.061Z,1013.26
2019-04-22T00:10:13.380Z,1013.23
2019-04-22T00:11:22.273Z,1013.25
2019-04-22T00:13:23.772Z,1013.25
2019-04-22T00:14:13.144Z,1013.23
2019-04-22T00:15:15.477Z,1013.24
2019-04-22T00:16:26.459Z,1013.22
2019-04-22T00:17:26.224Z,1013.18
2019-04-22T00:18:30.437Z,1013.17
2019-04-22T00:19:32.092Z,1013.16
2019-04-22T00:20:23.841Z,1013.17
2019-04-22T00:21:35.362Z,1013.17
2019-04-22T00:22:28.868Z,1013.16
2019-04-22T00:23:31.388Z,1013.17
2019-04-22T00:24:33.596Z,1013.18
2019-04-22T00:25:36.610Z,1013.17
2019-04-22T00:26:38.051Z,1013.15
2019-04-22T00:28:43.909Z,1013.14
2019-04-22T00:30:40.654Z,1013.10
2019-04-22T00:31:41.670Z,1013.11
2019-04-22T00:32:44.984Z,1013.11
2019-04-22T00:33:39.459Z,1013.12
2019-04-22T00:34:42.579Z,1013.10
2019-04-22T00:35:49.419Z,1013.07
2019-04-22T00:36:48.124Z,1013.09
2019-04-22T00:37:54.782Z,1013.07
2019-04-22T00:38:54.200Z,1013.11
2019-04-22T00:39:52.075Z,1013.12
2019-04-22T00:40:56.359Z,1013.08
2019-04-22T00:41:56.461Z,1013.07
2019-04-22T00:43:03.487Z,1013.08
2019-04-22T00:44:08.790Z,1013.10
2019-04-22T00:45:07.922Z,1013.06
2019-04-22T00:45:57.379Z,1013.07
2019-04-22T00:47:14.661Z,1013.05
2019-04-22T00:48:14.299Z,1013.08
2019-04-22T00:49:53.608Z,1013.11
2019-04-22T00:52:09.624Z,1013.04
2019-04-22T00:53:16.357Z,1013.06
2019-04-22T00:54:13.635Z,1013.05
2019-04-22T00:56:27.800Z,1013.05
2019-04-22T00:57:15.391Z,1013.03
2019-04-22T00:58:22.503Z,1012.98
2019-04-22T00:59:17.253Z,1013.00
2019-04-22T01:00:24.873Z,1013.04
2019-04-22T01:02:28.042Z,1013.00
2019-04-22T01:03:26.094Z,1013.03
2019-04-22T01:04:35.084Z,1013.02
2019-04-22T01:05:27.771Z,1012.98
2019-04-22T01:06:35.802Z,1013.04
2019-04-22T01:07:32.147Z,1013.05
2019-04-22T01:08:40.991Z,1013.04
2019-04-22T01:09:38.915Z,1012.98
2019-04-22T01:10:42.217Z,1013.02
2019-04-22T01:11:33.265Z,1013.00
2019-04-22T01:12:39.902Z,1013.00
2019-04-22T01:13:38.658Z,1013.00
2019-04-22T01:14:41.459Z,1013.02
2019-04-22T01:15:40.232Z,1013.00
2019-04-22T01:16:43.784Z,1012.96
2019-04-22T01:17:45.389Z,1013.00
2019-04-22T01:18:43.693Z,1012.97
2019-04-22T01:19:51.013Z,1012.97
2019-04-22T01:21:08.690Z,1012.98
2019-04-22T01:21:52.469Z,1012.95
2019-04-22T01:22:53.241Z,1013.01
2019-04-22T01:23:56.199Z,1012.98
2019-04-22T01:24:50.324Z,1012.99
2019-04-22T01:25:55.082Z,1013.01
2019-04-22T01:26:52.283Z,1012.96
2019-04-22T01:27:50.269Z,1013.01
2019-04-22T01:28:51.188Z,1012.98
2019-04-22T01:29:51.783Z,1013.01
2019-04-22T01:30:45.957Z,1013.03
2019-04-22T01:31:43.454Z,1013.00
2019-04-22T01:32:45.492Z,1013.00
2019-04-22T01:33:49.658Z,1013.01
2019-04-22T01:34:56.585Z,1013.00
2019-04-22T01:36:02.693Z,1013.01
2019-04-22T01:37:02.605Z,1013.00
2019-04-22T01:38:06.441Z,1013.00
2019-04-22T01:39:18.258Z,1012.99
2019-04-22T01:40:21.405Z,1012.99
2019-04-22T01:41:23.008Z,1013.00
2019-04-22T01:42:16.910Z,1012.97
2019-04-22T01:43:29.936Z,1012.99
2019-04-22T01:44:29.461Z,1012.96
2019-04-22T01:45:26.729Z,1012.94
2019-04-22T01:46:31.786Z,1012.94
2019-04-22T01:47:34.258Z,1012.92
2019-04-22T01:50:32.156Z,1012.91
2019-04-22T01:51:47.228Z,1012.88
2019-04-22T01:52:47.610Z,1012.91
2019-04-22T01:53:33.482Z,1012.88
2019-04-22T01:54:40.281Z,1012.85
2019-04-22T01:55:39.106Z,1012.90
2019-04-22T01:56:41.056Z,1012.89
2019-04-22T01:57:43.285Z,1012.89
2019-04-22T01:58:38.286Z,1012.88
2019-04-22T01:59:38.415Z,1012.86
2019-04-22T02:00:51.051Z,1012.86
2019-04-22T02:01:50.016Z,1012.85
2019-04-22T02:02:49.217Z,1012.85
2019-04-22T02:03:56.145Z,1012.87
2019-04-22T02:04:53.748Z,1012.89
2019-04-22T02:05:53.638Z,1012.89
2019-04-22T02:07:00.153Z,1012.95
2019-04-22T02:08:02.500Z,1012.93
2019-04-22T02:09:04.011Z,1012.89
2019-04-22T02:09:56.166Z,1012.91
2019-04-22T02:11:04.218Z,1012.94
2019-04-22T02:13:04.489Z,1012.90
2019-04-22T02:14:04.642Z,1012.88
2019-04-22T02:15:09.195Z,1012.87
2019-04-22T02:16:05.716Z,1012.89
2019-04-22T02:17:09.207Z,1012.91
2019-04-22T02:18:18.106Z,1012.90
2019-04-22T02:19:20.715Z,1012.88
2019-04-22T02:20:12.324Z,1012.91
2019-04-22T02:21:16.997Z,1012.90
2019-04-22T02:22:17.607Z,1012.91
2019-04-22T02:23:40.250Z,1012.87
2019-04-22T02:24:20.073Z,1012.88
2019-04-22T02:25:24.002Z,1012.90
2019-04-22T02:26:25.593Z,1012.88
2019-04-22T02:27:29.397Z,1012.90
2019-04-22T02:28:33.986Z,1012.87
2019-04-22T02:29:30.004Z,1012.85
2019-04-22T02:30:37.423Z,1012.83
2019-04-22T02:31:38.115Z,1012.79
2019-04-22T02:32:49.567Z,1012.79
2019-04-22T02:34:39.703Z,1012.76
2019-04-22T02:36:01.920Z,1012.76
2019-04-22T02:36:43.102Z,1012.74
2019-04-22T02:37:54.915Z,1012.75
2019-04-22T02:39:00.120Z,1012.70
2019-04-22T02:39:45.201Z,1012.70
2019-04-22T02:41:13.242Z,1012.67
2019-04-22T02:42:09.463Z,1012.72
2019-04-22T02:42:51.865Z,1012.69
2019-04-22T02:44:53.589Z,1012.69
2019-04-22T02:46:13.449Z,1012.69
2019-04-22T02:48:06.727Z,1012.66
2019-04-22T02:49:11.731Z,1012.66
2019-04-22T02:50:02.053Z,1012.64
2019-04-22T02:51:13.026Z,1012.64
2019-04-22T02:51:59.705Z,1012.61
2019-04-22T02:53:00.966Z,1012.61
2019-04-22T02:55:10.657Z,1012.54
2019-04-22T02:56:22.976Z,1012.62
2019-04-22T02:58:19.287Z,1012.55
2019-04-22T03:00:21.636Z,1012.55
2019-04-22T03:01:24.991Z,1012.53
2019-04-22T03:02:21.465Z,1012.50
2019-04-22T03:03:31.366Z,1012.48
2019-04-22T03:04:18.575Z,1012.47
2019-04-22T03:05:27.999Z,1012.51
2019-04-22T03:06:32.907Z,1012.47
2019-04-22T03:07:29.358Z,1012.46
2019-04-22T03:08:30.316Z,1012.48
2019-04-22T03:09:33.736Z,1012.42
2019-04-22T03:10:37.922Z,1012.42
2019-04-22T03:11:33.782Z,1012.43
2019-04-22T03:12:29.170Z,1012.39
2019-04-22T03:14:33.732Z,1012.38
2019-04-22T03:15:46.457Z,1012.38
2019-04-22T03:16:41.226Z,1012.34
2019-04-22T03:17:41.321Z,1012.33
2019-04-22T03:20:56.369Z,1012.30
2019-04-22T03:21:50.273Z,1012.28
2019-04-22T03:22:47.018Z,1012.30
2019-04-22T03:24:08.752Z,1012.32
2019-04-22T03:25:12.441Z,1012.35
2019-04-22T03:27:48.509Z,1012.34
2019-04-22T03:30:03.697Z,1012.35
2019-04-22T03:33:12.481Z,1012.39
2019-04-22T03:34:55.306Z,1012.38
2019-04-22T03:35:34.599Z,1012.40
2019-04-22T03:36:25.938Z,1012.35
2019-04-22T03:39:31.958Z,1012.36
2019-04-22T03:40:22.335Z,1012.46
2019-04-22T03:41:31.425Z,1012.43
2019-04-22T03:42:09.792Z,1012.43
2019-04-22T03:43:42.169Z,1012.45
2019-04-22T03:44:33.877Z,1012.39
2019-04-22T03:45:26.374Z,1012.42
2019-04-22T03:46:36.717Z,1012.40
2019-04-22T03:48:26.107Z,1012.43
2019-04-22T03:49:38.892Z,1012.37
2019-04-22T03:50:29.641Z,1012.38
2019-04-22T03:53:32.941Z,1012.33
2019-04-22T03:54:39.437Z,1012.30
2019-04-22T03:55:38.275Z,1012.33
2019-04-22T03:57:48.832Z,1012.32
2019-04-22T03:58:52.786Z,1012.30
2019-04-22T04:02:04.267Z,1012.28
2019-04-22T04:03:51.033Z,1012.32
2019-04-22T04:04:51.115Z,1012.37
2019-04-22T04:05:54.146Z,1012.33
2019-04-22T04:09:03.736Z,1012.33
2019-04-22T04:10:01.403Z,1012.30
2019-04-22T04:10:53.204Z,1012.31
2019-04-22T04:13:08.237Z,1012.32
2019-04-22T04:14:10.098Z,1012.31
2019-04-22T04:15:13.635Z,1012.32
2019-04-22T04:16:04.929Z,1012.32
2019-04-22T04:17:09.204Z,1012.33
2019-04-22T04:18:11.408Z,1012.29
2019-04-22T04:19:19.654Z,1012.32
2019-04-22T04:20:26.260Z,1012.33
2019-04-22T04:21:28.063Z,1012.36
2019-04-22T04:22:30.691Z,1012.36
2019-04-22T04:23:30.776Z,1012.36
2019-04-22T04:24:32.685Z,1012.38
2019-04-22T04:26:42.754Z,1012.38
2019-04-22T04:28:03.615Z,1012.36
2019-04-22T04:28:39.734Z,1012.38
2019-04-22T04:31:36.462Z,1012.44
2019-04-22T04:32:51.419Z,1012.43
2019-04-22T04:33:48.376Z,1012.44
2019-04-22T04:34:54.281Z,1012.43
2019-04-22T04:35:44.298Z,1012.42
2019-04-22T04:36:42.488Z,1012.44
2019-04-22T04:37:46.727Z,1012.36
2019-04-22T04:38:45.770Z,1012.37
2019-04-22T04:39:59.836Z,1012.37
2019-04-22T04:40:41.797Z,1012.40
2019-04-22T04:43:52.875Z,1012.40
2019-04-22T04:47:06.227Z,1012.38
2019-04-22T04:50:05.561Z,1012.36
2019-04-22T04:51:11.113Z,1012.39
2019-04-22T04:54:13.189Z,1012.40
2019-04-22T04:55:24.423Z,1012.39
2019-04-22T04:56:10.918Z,1012.38
2019-04-22T04:57:07.359Z,1012.41
2019-04-22T04:58:27.384Z,1012.40
2019-04-22T05:01:28.907Z,1012.38
2019-04-22T05:02:20.272Z,1012.44
2019-04-22T05:03:20.620Z,1012.43
2019-04-22T05:04:25.453Z,1012.43
2019-04-22T05:05:22.297Z,1012.44
2019-04-22T05:06:21.707Z,1012.43
2019-04-22T05:07:27.793Z,1012.45
2019-04-22T05:08:40.699Z,1012.50
2019-04-22T05:10:53.484Z,1012.48
2019-04-22T05:11:40.611Z,1012.49
2019-04-22T05:13:39.646Z,1012.51
2019-04-22T05:18:37.361Z,1012.46
2019-04-22T05:19:33.250Z,1012.46
2019-04-22T05:20:55.243Z,1012.48
2019-04-22T05:21:40.566Z,1012.50
2019-04-22T05:22:39.778Z,1012.51
2019-04-22T05:23:50.550Z,1012.52
2019-04-22T05:24:43.696Z,1012.53
2019-04-22T05:25:40.347Z,1012.49
2019-04-22T05:26:52.799Z,1012.52
2019-04-22T05:27:45.327Z,1012.55
2019-04-22T05:28:52.074Z,1012.56
2019-04-22T05:30:45.718Z,1012.62
2019-04-22T05:31:57.260Z,1012.60
2019-04-22T05:32:57.070Z,1012.60
2019-04-22T05:33:56.783Z,1012.60
2019-04-22T05:34:55.836Z,1012.59
2019-04-22T05:36:02.975Z,1012.59
2019-04-22T05:37:03.979Z,1012.62
2019-04-22T05:38:02.720Z,1012.66
2019-04-22T05:40:13.999Z,1012.67
2019-04-22T05:41:02.318Z,1012.64
2019-04-22T05:42:08.450Z,1012.67
2019-04-22T05:43:09.674Z,1012.70
2019-04-22T05:44:08.396Z,1012.79
2019-04-22T05:46:09.480Z,1012.69
2019-04-22T05:47:14.910Z,1012.68
2019-04-22T05:48:14.163Z,1012.67
2019-04-22T05:49:18.286Z,1012.75
2019-04-22T05:50:21.884Z,1012.71
2019-04-22T05:51:21.165Z,1012.74
2019-04-22T05:52:21.202Z,1012.77
2019-04-22T05:53:22.076Z,1012.82
2019-04-22T05:55:30.392Z,1012.84
2019-04-22T05:56:34.239Z,1013.02
2019-04-22T05:57:31.538Z,1013.16
2019-04-22T05:58:32.924Z,1013.19
2019-04-22T05:59:36.211Z,1013.37
2019-04-22T06:00:59.954Z,1013.38
2019-04-22T06:02:48.904Z,1012.99
2019-04-22T06:03:40.730Z,1012.94
2019-04-22T06:04:37.224Z,1012.88
2019-04-22T06:05:45.317Z,1012.79
2019-04-22T06:06:36.971Z,1012.84
2019-04-22T06:07:41.730Z,1012.85
2019-04-22T06:08:48.802Z,1012.88
2019-04-22T06:09:39.822Z,1012.97
2019-04-22T06:11:08.191Z,1012.92
2019-04-22T06:11:38.019Z,1012.93
2019-04-22T06:12:46.585Z,1012.96
2019-04-22T06:13:50.069Z,1012.93
2019-04-22T06:14:53.731Z,1012.91
2019-04-22T06:15:53.055Z,1012.91
2019-04-22T06:16:59.148Z,1012.93
2019-04-22T06:18:06.543Z,1012.96
2019-04-22T06:19:00.894Z,1012.96
2019-04-22T06:19:57.658Z,1012.97
2019-04-22T06:21:07.108Z,1012.99
2019-04-22T06:22:04.251Z,1012.87
2019-04-22T06:23:03.878Z,1012.95
2019-04-22T06:24:14.027Z,1012.92
2019-04-22T06:25:17.012Z,1012.91
2019-04-22T06:26:26.605Z,1012.90
2019-04-22T06:27:14.804Z,1012.94
2019-04-22T06:28:23.600Z,1012.91
2019-04-22T06:29:18.000Z,1012.99
2019-04-22T06:30:17.242Z,1012.99
2019-04-22T06:31:20.273Z,1012.95
2019-04-22T06:33:20.648Z,1012.95
2019-04-22T06:34:22.108Z,1012.97
2019-04-22T06:35:34.474Z,1012.97
2019-04-22T06:36:24.507Z,1012.93
2019-04-22T06:37:26.130Z,1012.98
2019-04-22T06:38:40.398Z,1013.02
2019-04-22T06:40:31.676Z,1012.96
2019-04-22T06:41:35.112Z,1012.98
2019-04-22T06:42:34.801Z,1012.95
2019-04-22T06:43:36.844Z,1012.95
2019-04-22T06:44:41.171Z,1012.94
2019-04-22T06:45:35.640Z,1012.96
2019-04-22T06:46:39.694Z,1013.08
2019-04-22T06:47:51.180Z,1012.95
2019-04-22T06:48:46.006Z,1013.01
2019-04-22T06:49:41.666Z,1012.99
2019-04-22T06:51:46.473Z,1013.06
2019-04-22T06:52:51.878Z,1013.00
2019-04-22T06:53:48.045Z,1013.18
2019-04-22T06:54:54.294Z,1013.23
2019-04-22T06:55:55.019Z,1013.12
2019-04-22T06:56:58.014Z,1013.08
2019-04-22T06:58:00.331Z,1013.07
2019-04-22T06:58:52.353Z,1013.16
2019-04-22T06:59:58.828Z,1013.08
2019-04-22T07:01:04.306Z,1013.07
2019-04-22T07:02:02.612Z,1013.10
2019-04-22T07:04:16.254Z,1013.05
2019-04-22T07:05:07.789Z,1013.11
2019-04-22T07:06:11.464Z,1013.01
2019-04-22T07:07:08.062Z,1013.04
2019-04-22T07:08:34.382Z,1013.08
2019-04-22T07:10:26.827Z,1013.06
2019-04-22T07:11:06.271Z,1012.97
2019-04-22T07:12:20.722Z,1013.00
2019-04-22T07:13:17.377Z,1013.05
2019-04-22T07:14:28.873Z,1013.00
2019-04-22T07:15:35.500Z,1013.11
2019-04-22T07:16:26.538Z,1013.04
2019-04-22T07:17:23.210Z,1013.12
2019-04-22T07:19:31.989Z,1013.14
2019-04-22T07:20:30.537Z,1013.19
2019-04-22T07:21:30.436Z,1013.15
2019-04-22T07:22:33.847Z,1013.11
2019-04-22T07:23:41.710Z,1013.13
2019-04-22T07:24:40.647Z,1013.18
2019-04-22T07:25:36.413Z,1013.11
2019-04-22T07:26:37.545Z,1013.13
2019-04-22T07:27:34.483Z,1013.08
2019-04-22T07:28:39.363Z,1013.12
2019-04-22T07:29:46.677Z,1013.16
2019-04-22T07:30:40.756Z,1013.13
2019-04-22T07:31:42.791Z,1013.11
2019-04-22T07:33:04.848Z,1013.20
2019-04-22T07:33:56.853Z,1013.00
2019-04-22T07:37:48.592Z,1013.16
2019-04-22T07:38:50.852Z,1013.16
2019-04-22T07:39:50.078Z,1013.22
2019-04-22T07:40:56.268Z,1013.08
2019-04-22T07:41:59.502Z,1013.01
2019-04-22T07:43:04.265Z,1013.04
2019-04-22T07:44:22.075Z,1013.08
2019-04-22T07:45:08.457Z,1013.08
2019-04-22T07:46:11.886Z,1013.15
2019-04-22T07:47:15.223Z,1013.10
2019-04-22T07:48:22.587Z,1013.11
2019-04-22T07:49:10.604Z,1013.12
2019-04-22T07:50:17.049Z,1013.10
2019-04-22T07:51:15.553Z,1013.13
2019-04-22T07:52:18.762Z,1013.13
2019-04-22T07:53:10.055Z,1013.16
2019-04-22T07:54:18.162Z,1013.15
2019-04-22T07:55:13.471Z,1013.06
2019-04-22T07:56:21.487Z,1012.78
2019-04-22T07:57:27.911Z,1012.96
2019-04-22T07:58:24.094Z,1013.09
2019-04-22T07:59:30.721Z,1013.21
2019-04-22T08:00:29.505Z,1013.07
2019-04-22T08:01:26.682Z,1013.11
2019-04-22T08:02:32.707Z,1013.13
2019-04-22T08:03:40.348Z,1013.18
2019-04-22T08:04:49.406Z,1013.13
2019-04-22T08:06:43.577Z,1013.08
2019-04-22T08:07:38.375Z,1013.13
2019-04-22T08:08:37.096Z,1013.12
2019-04-22T08:09:44.565Z,1013.22
2019-04-22T08:10:43.161Z,1013.12
2019-04-22T08:12:47.273Z,1013.15
2019-04-22T08:14:00.296Z,1013.20
2019-04-22T08:14:45.639Z,1013.05
2019-04-22T08:15:54.169Z,1013.36
2019-04-22T08:16:51.614Z,1013.22
2019-04-22T08:19:00.730Z,1013.17
2019-04-22T08:19:55.814Z,1013.15
2019-04-22T08:20:58.867Z,1013.29
2019-04-22T08:21:56.970Z,1013.20
2019-04-22T08:23:04.690Z,1013.12
2019-04-22T08:24:02.712Z,1013.02
2019-04-22T08:25:00.333Z,1013.13
2019-04-22T08:26:00.863Z,1013.19
2019-04-22T08:27:04.867Z,1013.11
2019-04-22T08:28:10.440Z,1013.23
2019-04-22T08:29:14.827Z,1013.14
2019-04-22T08:30:14.427Z,1013.09
2019-04-22T08:31:14.516Z,1013.09
2019-04-22T08:32:20.374Z,1013.11
2019-04-22T08:33:15.986Z,1013.09
2019-04-22T08:35:20.281Z,1013.17
2019-04-22T08:36:20.723Z,1013.26
2019-04-22T08:37:41.462Z,1013.07
2019-04-22T08:38:24.210Z,1013.20
2019-04-22T08:39:25.602Z,1013.06
2019-04-22T08:40:43.110Z,1013.02
2019-04-22T08:42:34.766Z,1013.33
2019-04-22T08:43:37.879Z,1013.22
2019-04-22T08:45:07.989Z,1013.39
2019-04-22T08:45:44.429Z,1013.50
2019-04-22T08:46:40.373Z,1013.36
2019-04-22T08:47:41.879Z,1013.44
2019-04-22T08:48:52.830Z,1013.50
2019-04-22T08:49:56.858Z,1013.44
2019-04-22T08:50:58.436Z,1013.43
2019-04-22T08:51:49.462Z,1013.45
2019-04-22T08:52:57.693Z,1013.49
2019-04-22T08:54:57.353Z,1013.52
2019-04-22T08:56:07.323Z,1013.53
2019-04-22T08:56:58.225Z,1013.62
2019-04-22T08:58:15.344Z,1013.60
2019-04-22T08:59:12.265Z,1013.45
2019-04-22T09:00:02.899Z,1013.41
2019-04-22T09:01:04.541Z,1013.37
2019-04-22T09:02:09.856Z,1013.59
2019-04-22T09:03:04.374Z,1013.32
2019-04-22T09:04:10.389Z,1013.37
2019-04-22T09:05:20.400Z,1013.37
2019-04-22T09:06:22.365Z,1013.36
2019-04-22T09:07:21.166Z,1013.32
2019-04-22T09:09:11.443Z,1013.33
2019-04-22T09:10:18.099Z,1013.33
2019-04-22T09:11:20.216Z,1013.33
2019-04-22T09:12:26.511Z,1013.29
2019-04-22T09:13:20.653Z,1013.36
2019-04-22T09:14:24.401Z,1013.19
2019-04-22T09:15:26.407Z,1013.23
2019-04-22T09:16:33.334Z,1013.21
2019-04-22T09:17:31.465Z,1013.12
2019-04-22T09:18:32.924Z,1013.22
2019-04-22T09:19:30.150Z,1013.30
2019-04-22T09:20:35.372Z,1013.19
2019-04-22T09:21:36.133Z,1013.25
2019-04-22T09:22:36.275Z,1013.27
2019-04-22T09:23:42.221Z,1013.28
2019-04-22T09:24:36.155Z,1013.19
2019-04-22T09:25:41.883Z,1013.24
2019-04-22T09:26:45.040Z,1013.22
2019-04-22T09:27:45.892Z,1013.23
2019-04-22T09:28:47.146Z,1013.20
2019-04-22T09:29:43.084Z,1013.22
2019-04-22T09:30:50.239Z,1013.12
2019-04-22T09:31:57.001Z,1013.11
2019-04-22T09:32:54.237Z,1013.12
2019-04-22T09:33:47.669Z,1013.12
2019-04-22T09:34:51.723Z,1013.10
2019-04-22T09:36:01.247Z,1013.27
2019-04-22T09:37:07.825Z,1013.21
2019-04-22T09:38:12.279Z,1013.13
2019-04-22T09:39:00.629Z,1013.18
2019-04-22T09:40:08.831Z,1013.14
2019-04-22T09:42:50.499Z,1013.15
2019-04-22T09:43:53.635Z,1013.20
2019-04-22T09:44:51.904Z,1013.19
2019-04-22T09:45:54.448Z,1013.07
2019-04-22T09:46:51.959Z,1013.09
2019-04-22T09:48:59.249Z,1013.03
2019-04-22T09:51:03.801Z,1015.37
2019-04-22T09:52:08.046Z,1013.15
2019-04-22T09:53:03.536Z,1012.99
2019-04-22T09:54:08.122Z,1012.89
2019-04-22T09:55:12.499Z,1016.41
2019-04-22T09:56:09.744Z,1016.51
2019-04-22T09:57:09.308Z,1016.79
2019-04-22T09:58:13.492Z,1016.30
2019-04-22T09:59:15.145Z,1014.35
2019-04-22T10:00:13.995Z,1016.35
2019-04-22T10:01:26.182Z,1016.29
2019-04-22T10:02:26.747Z,1015.55
2019-04-22T10:03:19.890Z,1015.65
2019-04-22T10:04:20.142Z,1015.63
2019-04-22T10:05:21.179Z,1015.20
2019-04-22T10:06:29.437Z,1015.37
2019-04-22T10:07:27.202Z,1015.51
2019-04-22T10:08:38.376Z,1015.65
2019-04-22T10:09:40.601Z,1015.89
2019-04-22T10:10:27.667Z,1015.91
2019-04-22T10:11:35.146Z,1015.80
2019-04-22T10:13:34.780Z,1015.45
2019-04-22T10:17:39.563Z,1014.99
2019-04-22T10:18:42.034Z,1015.01
2019-04-22T10:19:43.913Z,1014.88
2019-04-22T10:20:51.869Z,1014.97
2019-04-22T10:22:46.512Z,1014.76
2019-04-22T10:23:45.777Z,1014.67
2019-04-22T10:24:44.693Z,1014.60
2019-04-22T10:25:54.447Z,1014.57
2019-04-22T10:26:54.955Z,1014.64
2019-04-22T10:27:59.496Z,1014.52
2019-04-22T10:29:01.483Z,1014.59
2019-04-22T10:30:53.215Z,1013.71
2019-04-22T10:32:05.173Z,1013.16
2019-04-22T10:32:58.922Z,1012.83
2019-04-22T10:33:53.734Z,1012.62
2019-04-22T10:34:44.480Z,1012.70
2019-04-22T10:35:41.270Z,1012.79
2019-04-22T10:36:43.403Z,1012.82
2019-04-22T10:37:42.972Z,1012.83
2019-04-22T10:38:44.548Z,1012.70
2019-04-22T10:39:53.319Z,1012.73
2019-04-22T10:40:47.137Z,1012.70
2019-04-22T10:41:48.704Z,1012.61
2019-04-22T10:42:51.133Z,1012.85
2019-04-22T10:43:51.310Z,1013.20
2019-04-22T10:44:53.769Z,1013.48
2019-04-22T10:45:54.504Z,1013.64
2019-04-22T10:46:56.091Z,1013.47
2019-04-22T10:47:58.259Z,1013.41
2019-04-22T10:48:58.235Z,1013.42
2019-04-22T10:50:00.550Z,1013.42
2019-04-22T10:51:01.077Z,1013.32
2019-04-22T10:52:02.697Z,1013.40
2019-04-22T10:53:03.749Z,1013.28
2019-04-22T10:54:05.329Z,1013.15
2019-04-22T10:55:07.548Z,1013.08
2019-04-22T10:56:09.215Z,1013.22
2019-04-22T10:57:10.750Z,1013.21
2019-04-22T10:58:10.753Z,1013.07
2019-04-22T10:59:12.054Z,1013.14
2019-04-22T11:00:13.630Z,1013.08
2019-04-22T11:01:15.738Z,1012.94
2019-04-22T11:02:17.008Z,1012.87
2019-04-22T11:03:18.219Z,1012.88
2019-04-22T11:04:19.455Z,1012.83
2019-04-22T11:05:20.355Z,1012.85
2019-04-22T11:06:23.148Z,1012.81
2019-04-22T11:07:32.508Z,1012.73
2019-04-22T11:08:32.625Z,1012.67
2019-04-22T11:09:26.994Z,1012.61
2019-04-22T11:10:35.370Z,1012.59
2019-04-22T11:11:41.242Z,1012.51
2019-04-22T11:12:32.278Z,1012.48
2019-04-22T11:13:31.746Z,1012.51
2019-04-22T11:14:32.991Z,1012.44
2019-04-22T11:15:34.846Z,1012.43
2019-04-22T11:16:37.199Z,1012.37
2019-04-22T11:17:37.689Z,1012.35
2019-04-22T11:18:38.558Z,1012.34
2019-04-22T11:19:41.419Z,1012.38
2019-04-22T11:20:41.888Z,1012.47
2019-04-22T11:21:44.564Z,1012.30
2019-04-22T11:22:44.658Z,1012.32
2019-04-22T11:23:46.833Z,1012.24
2019-04-22T11:24:46.880Z,1012.33
2019-04-22T11:25:48.300Z,1012.34
2019-04-22T11:26:49.720Z,1012.27
2019-04-22T11:27:51.337Z,1012.27
2019-04-22T11:28:53.901Z,1012.24
2019-04-22T11:29:55.301Z,1012.21
2019-04-22T11:30:56.369Z,1012.20
2019-04-22T11:31:56.702Z,1012.21
2019-04-22T11:32:58.485Z,1012.21
2019-04-22T11:34:00.644Z,1012.23
2019-04-22T11:35:01.698Z,1012.05
2019-04-22T11:36:02.230Z,1012.11
2019-04-22T11:37:05.138Z,1012.13
2019-04-22T11:38:06.525Z,1012.11
2019-04-22T11:39:09.252Z,1012.15
2019-04-22T11:40:18.857Z,1012.24
2019-04-22T11:41:09.266Z,1012.17
2019-04-22T11:42:12.048Z,1012.07
2019-04-22T11:43:12.383Z,1012.01
2019-04-22T11:44:13.300Z,1011.97
2019-04-22T11:45:15.282Z,1011.99
2019-04-22T11:46:17.534Z,1011.84
2019-04-22T11:47:17.472Z,1011.96
2019-04-22T11:48:19.519Z,1011.87
2019-04-22T11:49:21.672Z,1011.91
2019-04-22T11:50:21.828Z,1011.93
2019-04-22T11:51:24.165Z,1011.98
2019-04-22T11:52:24.677Z,1012.00
2019-04-22T11:53:26.914Z,1011.93
2019-04-22T11:54:28.469Z,1011.86
2019-04-22T11:55:28.824Z,1011.82
2019-04-22T11:56:30.994Z,1011.77
2019-04-22T11:57:31.262Z,1011.73
2019-04-22T11:58:33.158Z,1011.75
2019-04-22T11:59:34.055Z,1011.76
2019-04-22T12:00:36.785Z,1011.80
2019-04-22T12:01:37.176Z,1011.76
2019-04-22T12:02:38.815Z,1011.77
2019-04-22T12:03:40.003Z,1011.72
2019-04-22T12:04:40.943Z,1011.88
2019-04-22T12:05:43.757Z,1011.70
2019-04-22T12:06:44.158Z,1011.75
2019-04-22T12:07:45.101Z,1011.70
2019-04-22T12:08:47.790Z,1011.60
2019-04-22T12:09:47.899Z,1011.73
2019-04-22T12:10:53.244Z,1011.63
2019-04-22T12:11:51.628Z,1011.63
2019-04-22T12:12:53.535Z,1011.73
2019-04-22T12:13:54.033Z,1011.64
2019-04-22T12:14:54.748Z,1011.68
2019-04-22T12:15:56.148Z,1011.64
2019-04-22T12:16:57.552Z,1011.67
2019-04-22T12:17:59.289Z,1011.67
2019-04-22T12:19:00.855Z,1011.65
2019-04-22T12:20:05.072Z,1011.65
2019-04-22T12:21:03.587Z,1011.70
2019-04-22T12:22:04.884Z,1011.57
2019-04-22T12:23:07.263Z,1011.57
2019-04-22T12:24:07.169Z,1011.50
2019-04-22T12:25:08.569Z,1011.58
2019-04-22T12:26:13.176Z,1011.62
2019-04-22T12:27:11.349Z,1011.74
2019-04-22T12:28:12.976Z,1011.69
2019-04-22T12:29:15.157Z,1011.73
2019-04-22T12:30:16.731Z,1011.66
2019-04-22T12:31:17.631Z,1011.65
2019-04-22T12:32:18.209Z,1011.55
2019-04-22T12:33:20.930Z,1011.56
2019-04-22T12:34:21.551Z,1011.54
2019-04-22T12:35:22.353Z,1011.65
2019-04-22T12:36:24.529Z,1011.72
2019-04-22T12:37:34.201Z,1011.53
2019-04-22T12:38:27.446Z,1011.47
2019-04-22T12:39:27.851Z,1011.50
2019-04-22T12:40:39.471Z,1011.47
2019-04-22T12:41:31.107Z,1011.48
2019-04-22T12:42:33.262Z,1011.38
2019-04-22T12:43:33.649Z,1011.45
2019-04-22T12:44:37.396Z,1011.39
2019-04-22T12:45:36.340Z,1011.46
2019-04-22T12:46:38.342Z,1011.42
2019-04-22T12:47:40.220Z,1011.38
2019-04-22T12:48:41.128Z,1011.40
2019-04-22T12:49:42.498Z,1011.29
2019-04-22T12:50:45.643Z,1011.46
2019-04-22T12:51:45.368Z,1011.39
2019-04-22T12:52:52.702Z,1011.42
2019-04-22T12:53:47.014Z,1011.14
2019-04-22T12:54:49.057Z,1011.20
2019-04-22T12:55:50.303Z,1011.19
2019-04-22T12:56:51.416Z,1011.20
2019-04-22T12:57:53.935Z,1011.28
2019-04-22T12:58:54.026Z,1011.21
2019-04-22T12:59:55.404Z,1011.17
2019-04-22T13:00:57.031Z,1011.18
2019-04-22T13:01:58.569Z,1011.16
2019-04-22T13:02:59.335Z,1011.17
2019-04-22T13:04:05.818Z,1011.24
2019-04-22T13:05:02.107Z,1011.41
2019-04-22T13:06:03.777Z,1011.22
2019-04-22T13:07:05.939Z,1011.15
2019-04-22T13:08:07.598Z,1011.15
2019-04-22T13:09:08.514Z,1011.07
2019-04-22T13:10:10.123Z,1011.09
2019-04-22T13:11:12.977Z,1011.17
2019-04-22T13:12:13.090Z,1011.18
2019-04-22T13:13:13.206Z,1011.09
2019-04-22T13:14:14.952Z,1011.01
2019-04-22T13:15:16.024Z,1011.04
2019-04-22T13:16:17.486Z,1011.20
2019-04-22T13:17:18.965Z,1010.97
2019-04-22T13:18:28.759Z,1011.02
2019-04-22T13:19:22.968Z,1011.00
2019-04-22T13:20:24.177Z,1011.13
2019-04-22T13:21:24.645Z,1010.98
2019-04-22T13:22:25.339Z,1010.92
2019-04-22T13:23:27.535Z,1010.97
2019-04-22T13:24:28.131Z,1010.90
2019-04-22T13:25:31.891Z,1010.84
2019-04-22T13:26:31.835Z,1010.75
2019-04-22T13:27:33.147Z,1010.74
2019-04-22T13:28:34.664Z,1010.76
2019-04-22T13:29:35.056Z,1010.82
2019-04-22T13:30:36.869Z,1010.85
2019-04-22T13:31:37.665Z,1010.82
2019-04-22T13:32:39.066Z,1010.75
2019-04-22T13:33:41.062Z,1010.84
2019-04-22T13:34:46.587Z,1010.79
2019-04-22T13:35:43.779Z,1010.79
2019-04-22T13:36:46.596Z,1010.68
2019-04-22T13:37:46.777Z,1010.67
2019-04-22T13:38:47.294Z,1010.64
2019-04-22T13:39:49.272Z,1010.72
2019-04-22T13:41:02.518Z,1010.62
2019-04-22T13:41:56.338Z,1010.64
2019-04-22T13:42:53.538Z,1010.72
2019-04-22T13:43:55.780Z,1010.49
2019-04-22T13:44:55.905Z,1010.54
2019-04-22T13:45:58.026Z,1010.51
2019-04-22T13:47:16.522Z,1010.52
2019-04-22T13:48:16.671Z,1010.54
2019-04-22T13:49:37.806Z,1010.62
2019-04-22T13:50:32.905Z,1010.50
2019-04-22T13:51:36.420Z,1010.54